London Heathrow Airport

EGLL | LHR

London , England , United Kingdom

Tuesday, October 22nd, 2019 | 04:54

Weather

EGLL 220350Z AUTO VRB01KT 8000 NCD 07/07 Q1023 TEMPO 4000 BR

Charts

1 Available

Gates

243 Available

Runways

2 Available

Events

No events for this airport


New event